Airport View

Enter AWOS ICAO identifier for current METAR.

ex. KFNL

KEBS 310225Z AUTO 07004KT 10SM SCT120 18/09 A3021 RMK AO2

31 May 2020 02:31

Frequency: 127.825

Phone: 515-832-2794

Other Area AWOS: KFOD - KCAV - KBNW - KIFA

TAF KFOD 302320Z 3100/3124 02005KT P6SM SKC FM311300 15007KT P6SM BKN070